createdAt,value
2019-03-19T00:00:43.759Z,60.74
2019-03-19T00:03:11.532Z,60.51
2019-03-19T00:05:38.943Z,60.36
2019-03-19T00:08:06.513Z,59.95
2019-03-19T00:10:33.970Z,60.08
2019-03-19T00:13:01.392Z,60.32
2019-03-19T00:15:28.847Z,60.13
2019-03-19T00:17:56.277Z,60.06
2019-03-19T00:20:23.708Z,59.82
2019-03-19T00:22:51.155Z,59.81
2019-03-19T00:25:29.070Z,59.94
2019-03-19T00:27:45.995Z,59.83
2019-03-19T00:30:13.399Z,59.92
2019-03-19T00:32:40.834Z,60.05
2019-03-19T00:35:08.261Z,60.06
2019-03-19T00:37:35.658Z,59.88
2019-03-19T00:40:03.054Z,60.16
2019-03-19T00:42:30.707Z,60.06
2019-03-19T00:44:58.136Z,60.25
2019-03-19T00:47:25.547Z,60.37
2019-03-19T00:49:53.892Z,60.70
2019-03-19T00:52:21.330Z,60.87
2019-03-19T00:54:48.781Z,61.03
2019-03-19T00:57:16.224Z,60.99
2019-03-19T00:59:43.677Z,61.17
2019-03-19T01:02:11.083Z,61.29
2019-03-19T01:04:38.502Z,61.60
2019-03-19T01:07:05.905Z,61.51
2019-03-19T01:09:33.323Z,61.29
2019-03-19T01:12:00.727Z,61.23
2019-03-19T01:14:28.136Z,61.15
2019-03-19T01:16:55.560Z,60.94
2019-03-19T01:19:22.956Z,60.81
2019-03-19T01:21:50.360Z,60.90
2019-03-19T01:24:18.510Z,60.97
2019-03-19T01:26:45.935Z,61.36
2019-03-19T01:29:13.369Z,61.79
2019-03-19T01:31:40.775Z,62.06
2019-03-19T01:34:08.222Z,62.21
2019-03-19T01:36:35.629Z,62.20
2019-03-19T01:39:03.019Z,62.29
2019-03-19T01:41:30.476Z,62.45
2019-03-19T01:43:57.896Z,62.74
2019-03-19T01:46:25.303Z,62.59
2019-03-19T01:48:52.685Z,62.72
2019-03-19T01:51:20.125Z,62.71
2019-03-19T01:53:47.580Z,63.00
2019-03-19T01:56:14.976Z,63.38
2019-03-19T01:58:42.479Z,63.30
2019-03-19T02:01:09.896Z,63.54
2019-03-19T02:03:37.827Z,63.81
2019-03-19T02:06:05.234Z,63.89
2019-03-19T02:08:32.628Z,63.87
2019-03-19T02:11:00.049Z,63.80
2019-03-19T02:13:27.431Z,63.75
2019-03-19T02:15:54.840Z,63.60
2019-03-19T02:18:22.236Z,63.68
2019-03-19T02:20:49.675Z,63.98
2019-03-19T02:23:17.075Z,64.42
2019-03-19T02:25:44.531Z,64.38
2019-03-19T02:28:11.935Z,64.19
2019-03-19T02:30:39.339Z,63.95
2019-03-19T02:33:06.736Z,63.83
2019-03-19T02:35:34.136Z,63.78
2019-03-19T02:38:01.518Z,63.63
2019-03-19T02:40:28.923Z,63.56
2019-03-19T02:42:56.349Z,63.92
2019-03-19T02:45:23.777Z,63.96
2019-03-19T02:47:51.197Z,63.88
2019-03-19T02:50:18.598Z,63.86
2019-03-19T02:52:46.158Z,63.59
2019-03-19T02:55:13.865Z,63.80
2019-03-19T02:57:41.282Z,64.20
2019-03-19T03:00:10.335Z,64.42
2019-03-19T03:02:37.732Z,64.69
2019-03-19T03:05:05.128Z,65.08
2019-03-19T03:07:32.598Z,65.29
2019-03-19T03:10:00.018Z,65.37
2019-03-19T03:12:27.413Z,65.39
2019-03-19T03:14:54.858Z,65.22
2019-03-19T03:17:22.268Z,65.26
2019-03-19T03:19:49.685Z,65.31
2019-03-19T03:22:17.153Z,65.59
2019-03-19T03:24:44.552Z,65.79
2019-03-19T03:27:12.003Z,65.89
2019-03-19T03:29:39.989Z,65.89
2019-03-19T03:32:07.395Z,65.79
2019-03-19T03:34:35.064Z,65.50
2019-03-19T03:37:02.516Z,65.28
2019-03-19T03:39:30.014Z,65.38
2019-03-19T03:41:57.428Z,65.42
2019-03-19T03:44:24.820Z,65.34
2019-03-19T03:46:52.222Z,65.64
2019-03-19T03:49:19.636Z,65.74
2019-03-19T03:51:47.089Z,65.78
2019-03-19T03:54:14.502Z,65.76
2019-03-19T03:56:41.973Z,65.75
2019-03-19T03:59:09.380Z,65.65
2019-03-19T04:01:37.403Z,65.54
2019-03-19T04:04:04.823Z,65.85
2019-03-19T04:06:32.288Z,66.25
2019-03-19T04:08:59.692Z,66.56
2019-03-19T04:11:27.104Z,66.42
2019-03-19T04:13:54.505Z,66.53
2019-03-19T04:16:21.904Z,66.39
2019-03-19T04:18:49.311Z,66.57
2019-03-19T04:21:16.703Z,66.75
2019-03-19T04:23:44.110Z,66.54
2019-03-19T04:26:11.501Z,66.50
2019-03-19T04:28:38.913Z,66.50
2019-03-19T04:31:06.308Z,66.57
2019-03-19T04:33:33.731Z,66.42
2019-03-19T04:36:01.127Z,66.40
2019-03-19T04:38:28.552Z,66.26
2019-03-19T04:40:55.962Z,66.30
2019-03-19T04:43:23.372Z,66.26
2019-03-19T04:45:50.766Z,66.45
2019-03-19T04:48:18.241Z,66.43
2019-03-19T04:50:45.618Z,66.41
2019-03-19T04:53:13.404Z,66.38
2019-03-19T04:55:40.811Z,66.60
2019-03-19T04:58:08.287Z,66.48
2019-03-19T05:00:35.704Z,66.53
2019-03-19T05:03:03.101Z,66.48
2019-03-19T05:05:30.508Z,66.35
2019-03-19T05:07:57.901Z,66.79
2019-03-19T05:10:25.443Z,67.57
2019-03-19T05:12:52.894Z,67.76
2019-03-19T05:15:20.292Z,68.12
2019-03-19T05:17:47.712Z,68.27
2019-03-19T05:20:15.157Z,68.86
2019-03-19T05:22:42.569Z,69.28
2019-03-19T05:25:09.974Z,69.20
2019-03-19T05:27:37.978Z,69.35
2019-03-19T05:30:07.563Z,69.38
2019-03-19T05:32:34.954Z,69.64
2019-03-19T05:35:02.475Z,69.76
2019-03-19T05:37:30.062Z,70.02
2019-03-19T05:39:57.479Z,70.21
2019-03-19T05:42:24.893Z,70.18
2019-03-19T05:44:52.356Z,70.06
2019-03-19T05:47:19.910Z,69.85
2019-03-19T05:49:47.321Z,70.15
2019-03-19T05:52:14.722Z,70.62
2019-03-19T05:54:42.123Z,70.99
2019-03-19T05:57:09.619Z,70.99
2019-03-19T05:59:37.015Z,71.15
2019-03-19T06:02:04.431Z,71.17
2019-03-19T06:04:32.394Z,71.24
2019-03-19T06:06:59.812Z,71.24
2019-03-19T06:09:27.247Z,71.16
2019-03-19T06:11:54.659Z,70.68
2019-03-19T06:14:22.069Z,70.40
2019-03-19T06:16:49.575Z,70.12
2019-03-19T06:19:17.040Z,69.99
2019-03-19T06:21:44.483Z,69.71
2019-03-19T06:24:11.905Z,69.50
2019-03-19T06:26:39.307Z,69.33
2019-03-19T06:29:06.733Z,69.08
2019-03-19T06:31:34.316Z,68.87
2019-03-19T06:34:01.708Z,67.89
2019-03-19T06:36:29.122Z,66.85
2019-03-19T06:38:56.615Z,66.47
2019-03-19T06:41:24.551Z,66.38
2019-03-19T06:43:52.298Z,66.18
2019-03-19T06:46:19.745Z,65.80
2019-03-19T06:48:47.197Z,65.32
2019-03-19T06:51:14.765Z,65.11
2019-03-19T06:53:41.838Z,64.89
2019-03-19T06:56:09.264Z,65.11
2019-03-19T06:58:37.579Z,65.05
2019-03-19T07:01:05.031Z,64.52
2019-03-19T07:03:31.965Z,63.71
2019-03-19T07:05:59.984Z,63.69
2019-03-19T07:08:27.388Z,63.46
2019-03-19T07:10:54.858Z,63.37
2019-03-19T07:13:22.378Z,64.03
2019-03-19T07:15:50.098Z,63.65
2019-03-19T07:18:17.541Z,63.38
2019-03-19T07:20:44.993Z,63.36
2019-03-19T07:23:13.377Z,63.48
2019-03-19T07:25:40.836Z,62.60
2019-03-19T07:28:08.314Z,62.27
2019-03-19T07:30:36.022Z,62.15
2019-03-19T07:33:03.432Z,61.42
2019-03-19T07:35:30.837Z,61.04
2019-03-19T07:37:58.333Z,60.33
2019-03-19T07:40:25.869Z,59.45
2019-03-19T07:42:53.248Z,59.31
2019-03-19T07:45:21.464Z,59.65
2019-03-19T07:47:48.882Z,59.56
2019-03-19T07:50:16.415Z,59.17
2019-03-19T07:52:43.935Z,58.35
2019-03-19T07:55:11.382Z,57.58
2019-03-19T07:57:38.851Z,57.22
2019-03-19T08:00:11.759Z,57.01
2019-03-19T08:02:39.263Z,56.26
2019-03-19T08:05:06.724Z,55.50
2019-03-19T08:07:34.186Z,54.69
2019-03-19T08:10:01.592Z,54.34
2019-03-19T08:12:28.997Z,53.96
2019-03-19T08:14:56.434Z,53.41
2019-03-19T08:17:23.914Z,53.17
2019-03-19T08:19:52.066Z,52.31
2019-03-19T08:22:19.472Z,52.07
2019-03-19T08:24:46.906Z,51.81
2019-03-19T08:27:14.393Z,51.55
2019-03-19T08:29:42.101Z,51.60
2019-03-19T08:32:09.929Z,51.04
2019-03-19T08:34:37.383Z,50.90
2019-03-19T08:37:05.699Z,50.98
2019-03-19T08:39:33.164Z,50.64
2019-03-19T08:42:00.131Z,50.64
2019-03-19T08:44:27.973Z,51.16
2019-03-19T08:46:54.593Z,50.76
2019-03-19T08:49:22.435Z,50.25
2019-03-19T08:51:48.593Z,49.98
2019-03-19T08:54:15.562Z,50.22
2019-03-19T08:56:42.561Z,50.07
2019-03-19T08:59:09.510Z,50.08
2019-03-19T09:01:36.996Z,50.17
2019-03-19T09:04:04.140Z,49.69
2019-03-19T09:06:31.566Z,49.26
2019-03-19T09:08:58.781Z,49.06
2019-03-19T09:11:26.212Z,48.96
2019-03-19T09:13:53.169Z,48.73
2019-03-19T09:16:20.102Z,48.39
2019-03-19T09:18:47.062Z,47.76
2019-03-19T09:21:14.144Z,47.56
2019-03-19T09:23:41.173Z,47.16
2019-03-19T09:26:08.154Z,46.96
2019-03-19T09:28:35.102Z,46.56
2019-03-19T09:31:02.074Z,46.33
2019-03-19T09:33:29.042Z,46.30
2019-03-19T09:35:55.990Z,46.63
2019-03-19T09:38:23.051Z,47.58
2019-03-19T09:40:50.093Z,48.83
2019-03-19T09:43:17.042Z,48.98
2019-03-19T09:45:43.992Z,49.01
2019-03-19T09:48:11.426Z,48.79
2019-03-19T09:50:38.814Z,47.99
2019-03-19T09:53:06.247Z,46.84
2019-03-19T09:55:34.507Z,46.46
2019-03-19T09:58:01.656Z,46.70
2019-03-19T10:00:28.669Z,46.18
2019-03-19T10:02:55.621Z,45.61
2019-03-19T10:05:22.588Z,44.96
2019-03-19T10:07:49.723Z,45.20
2019-03-19T10:10:17.745Z,45.66
2019-03-19T10:12:44.733Z,45.11
2019-03-19T10:15:11.915Z,45.03
2019-03-19T10:17:38.973Z,45.18
2019-03-19T10:20:08.824Z,44.33
2019-03-19T10:22:36.239Z,43.41
2019-03-19T10:25:05.118Z,43.10
2019-03-19T10:27:32.575Z,44.58
2019-03-19T10:30:00.037Z,45.27
2019-03-19T10:32:27.550Z,45.62
2019-03-19T10:34:55.009Z,45.26
2019-03-19T10:37:22.492Z,44.24
2019-03-19T10:39:49.953Z,44.48
2019-03-19T10:42:17.376Z,44.49
2019-03-19T10:44:45.894Z,44.05
2019-03-19T10:47:13.375Z,42.89
2019-03-19T10:49:41.680Z,42.86
2019-03-19T10:52:09.558Z,42.87
2019-03-19T10:54:36.986Z,42.47
2019-03-19T10:57:04.423Z,41.95
2019-03-19T10:59:32.383Z,41.99
2019-03-19T11:01:59.968Z,41.53
2019-03-19T11:04:27.436Z,40.78
2019-03-19T11:06:54.873Z,40.30
2019-03-19T11:09:22.293Z,39.84
2019-03-19T11:11:50.142Z,39.05
2019-03-19T11:14:18.058Z,38.71
2019-03-19T11:16:45.471Z,38.56
2019-03-19T11:19:13.087Z,38.57
2019-03-19T11:21:40.639Z,38.34
2019-03-19T11:24:08.119Z,38.79
2019-03-19T11:26:35.557Z,38.13
2019-03-19T11:29:02.983Z,38.02
2019-03-19T11:31:29.914Z,37.06
2019-03-19T11:33:56.873Z,36.42
2019-03-19T11:36:23.952Z,35.36
2019-03-19T11:38:51.382Z,34.09
2019-03-19T11:41:18.360Z,33.22
2019-03-19T11:43:45.336Z,32.43
2019-03-19T11:46:12.338Z,31.51
2019-03-19T11:48:39.316Z,31.45
2019-03-19T11:51:06.391Z,31.27
2019-03-19T11:53:33.405Z,30.63
2019-03-19T11:56:00.358Z,30.21
2019-03-19T11:58:27.589Z,29.74
2019-03-19T12:00:55.373Z,29.62
2019-03-19T12:03:22.329Z,28.85
2019-03-19T12:05:49.304Z,28.48
2019-03-19T12:08:16.804Z,27.97
2019-03-19T12:10:44.398Z,27.45
2019-03-19T12:13:11.386Z,27.11
2019-03-19T12:15:38.423Z,26.88
2019-03-19T12:18:06.119Z,26.88
2019-03-19T12:20:34.507Z,26.62
2019-03-19T12:23:01.949Z,26.92
2019-03-19T12:25:31.185Z,27.34
2019-03-19T12:27:56.780Z,27.42
2019-03-19T12:30:26.258Z,27.26
2019-03-19T12:32:51.627Z,27.71
2019-03-19T12:35:19.646Z,27.44
2019-03-19T12:37:47.755Z,26.99
2019-03-19T12:40:17.923Z,26.82
2019-03-19T12:42:45.363Z,27.08
2019-03-19T12:45:15.306Z,27.11
2019-03-19T12:47:42.732Z,26.63
2019-03-19T12:50:10.751Z,26.88
2019-03-19T12:52:38.213Z,26.43
2019-03-19T12:55:05.659Z,25.81
2019-03-19T12:57:33.163Z,25.91
2019-03-19T13:00:01.546Z,26.20
2019-03-19T13:02:29.006Z,26.31
2019-03-19T13:04:56.507Z,25.67
2019-03-19T13:07:24.187Z,25.75
2019-03-19T13:09:51.587Z,25.78
2019-03-19T13:12:19.042Z,26.48
2019-03-19T13:14:46.456Z,27.52
2019-03-19T13:17:13.861Z,28.32
2019-03-19T13:19:41.285Z,28.69
2019-03-19T13:22:08.916Z,28.77
2019-03-19T13:24:36.347Z,28.43
2019-03-19T13:27:04.063Z,28.70
2019-03-19T13:29:31.593Z,28.62
2019-03-19T13:31:59.579Z,28.32
2019-03-19T13:34:26.991Z,28.59
2019-03-19T13:36:54.586Z,28.30
2019-03-19T13:39:22.053Z,28.71
2019-03-19T13:41:49.471Z,28.83
2019-03-19T13:44:16.924Z,28.79
2019-03-19T13:46:44.323Z,28.50
2019-03-19T13:49:11.764Z,28.32
2019-03-19T13:51:39.192Z,28.39
2019-03-19T13:54:06.622Z,28.86
2019-03-19T13:56:34.058Z,28.51
2019-03-19T13:59:01.492Z,28.36
2019-03-19T14:01:28.903Z,28.15
2019-03-19T14:03:56.422Z,28.26
2019-03-19T14:06:23.367Z,28.07
2019-03-19T14:08:51.014Z,27.22
2019-03-19T14:11:18.445Z,26.64
2019-03-19T14:13:45.845Z,26.31
2019-03-19T14:16:13.274Z,25.51
2019-03-19T14:18:40.692Z,24.59
2019-03-19T14:21:08.236Z,25.04
2019-03-19T14:23:35.644Z,25.27
2019-03-19T14:26:03.114Z,25.36
2019-03-19T14:28:30.668Z,25.16
2019-03-19T14:31:08.117Z,24.89
2019-03-19T14:33:26.494Z,25.62
2019-03-19T14:35:54.004Z,26.09
2019-03-19T14:38:21.453Z,25.70
2019-03-19T14:40:48.868Z,25.24
2019-03-19T14:43:16.340Z,25.12
2019-03-19T14:45:43.927Z,24.93
2019-03-19T14:48:11.355Z,24.53
2019-03-19T14:50:38.758Z,24.84
2019-03-19T14:53:06.286Z,25.73
2019-03-19T14:55:33.714Z,26.35
2019-03-19T14:58:01.136Z,26.14
2019-03-19T15:00:29.772Z,25.19
2019-03-19T15:02:57.274Z,24.61
2019-03-19T15:05:24.715Z,24.46
2019-03-19T15:07:52.176Z,24.63
2019-03-19T15:10:19.615Z,25.54
2019-03-19T15:12:47.098Z,26.75
2019-03-19T15:15:14.487Z,26.50
2019-03-19T15:17:41.977Z,25.63
2019-03-19T15:20:09.447Z,25.46
2019-03-19T15:22:36.910Z,25.57
2019-03-19T15:25:04.400Z,25.94
2019-03-19T15:27:31.821Z,25.84
2019-03-19T15:29:59.299Z,25.44
2019-03-19T15:32:26.784Z,25.58
2019-03-19T15:34:54.198Z,25.81
2019-03-19T15:37:21.633Z,26.00
2019-03-19T15:39:49.066Z,26.35
2019-03-19T15:42:16.667Z,26.60
2019-03-19T15:44:44.059Z,27.04
2019-03-19T15:47:11.471Z,27.80
2019-03-19T15:49:38.920Z,27.85
2019-03-19T15:52:06.381Z,28.43
2019-03-19T15:54:34.120Z,28.69
2019-03-19T15:57:01.527Z,28.41
2019-03-19T15:59:28.945Z,28.18
2019-03-19T16:01:56.565Z,28.18
2019-03-19T16:04:23.995Z,28.15
2019-03-19T16:06:51.396Z,27.61
2019-03-19T16:09:18.821Z,27.55
2019-03-19T16:11:47.251Z,27.32
2019-03-19T16:14:14.717Z,27.61
2019-03-19T16:16:42.119Z,28.09
2019-03-19T16:19:09.547Z,28.48
2019-03-19T16:21:36.948Z,28.76
2019-03-19T16:24:04.468Z,29.18
2019-03-19T16:26:31.882Z,29.06
2019-03-19T16:28:59.307Z,29.17
2019-03-19T16:31:26.901Z,29.31
2019-03-19T16:33:54.317Z,29.95
2019-03-19T16:36:21.753Z,29.76
2019-03-19T16:38:49.171Z,29.84
2019-03-19T16:41:16.788Z,30.52
2019-03-19T16:43:44.186Z,30.95
2019-03-19T16:46:11.877Z,31.34
2019-03-19T16:48:39.400Z,31.64
2019-03-19T16:51:06.899Z,32.20
2019-03-19T16:53:34.355Z,32.12
2019-03-19T16:56:01.792Z,31.78
2019-03-19T16:58:29.206Z,31.60
2019-03-19T17:00:56.960Z,32.17
2019-03-19T17:03:24.605Z,33.40
2019-03-19T17:05:52.020Z,34.17
2019-03-19T17:08:19.611Z,34.76
2019-03-19T17:10:47.071Z,34.99
2019-03-19T17:13:14.493Z,35.07
2019-03-19T17:15:41.438Z,35.42
2019-03-19T17:18:08.883Z,35.89
2019-03-19T17:20:36.566Z,36.64
2019-03-19T17:23:04.040Z,37.05
2019-03-19T17:25:31.607Z,37.71
2019-03-19T17:27:59.000Z,38.22
2019-03-19T17:30:29.295Z,38.80
2019-03-19T17:32:56.837Z,39.21
2019-03-19T17:35:24.236Z,39.70
2019-03-19T17:37:51.696Z,40.12
2019-03-19T17:40:19.132Z,40.17
2019-03-19T17:42:46.558Z,40.11
2019-03-19T17:45:15.197Z,40.46
2019-03-19T17:47:42.799Z,40.80
2019-03-19T17:50:14.949Z,41.08
2019-03-19T17:52:42.453Z,41.39
2019-03-19T17:55:09.997Z,41.65
2019-03-19T17:57:37.444Z,41.91
2019-03-19T18:00:04.856Z,41.75
2019-03-19T18:02:32.302Z,41.47
2019-03-19T18:04:59.725Z,41.50
2019-03-19T18:07:27.298Z,41.69
2019-03-19T18:09:54.737Z,41.42
2019-03-19T18:12:22.127Z,40.41
2019-03-19T18:14:49.566Z,39.20
2019-03-19T18:17:17.001Z,38.58
2019-03-19T18:19:45.203Z,38.20
2019-03-19T18:22:12.611Z,37.84
2019-03-19T18:24:40.043Z,37.74
2019-03-19T18:27:07.467Z,37.77
2019-03-19T18:29:34.853Z,37.86
2019-03-19T18:32:02.325Z,38.21
2019-03-19T18:34:29.795Z,38.85
2019-03-19T18:36:57.301Z,39.35
2019-03-19T18:39:24.769Z,39.76
2019-03-19T18:41:52.182Z,40.21
2019-03-19T18:44:19.607Z,40.73
2019-03-19T18:46:47.070Z,41.18
2019-03-19T18:49:14.519Z,41.67
2019-03-19T18:51:41.936Z,41.96
2019-03-19T18:54:09.368Z,41.80
2019-03-19T18:56:36.796Z,41.31
2019-03-19T18:59:04.227Z,41.33
2019-03-19T19:01:31.638Z,41.66
2019-03-19T19:03:59.151Z,41.92
2019-03-19T19:06:26.582Z,42.62
2019-03-19T19:08:53.979Z,43.52
2019-03-19T19:11:21.535Z,44.72
2019-03-19T19:13:48.986Z,45.43
2019-03-19T19:16:16.462Z,45.91
2019-03-19T19:18:43.869Z,45.87
2019-03-19T19:21:11.383Z,45.77
2019-03-19T19:23:38.834Z,44.85
2019-03-19T19:26:06.239Z,44.13
2019-03-19T19:28:33.678Z,43.62
2019-03-19T19:31:01.067Z,43.17
2019-03-19T19:33:28.535Z,42.87
2019-03-19T19:35:55.992Z,42.58
2019-03-19T19:38:23.420Z,42.55
2019-03-19T19:40:50.928Z,42.57
2019-03-19T19:43:18.534Z,42.68
2019-03-19T19:45:45.994Z,42.80
2019-03-19T19:48:13.465Z,42.90
2019-03-19T19:50:41.891Z,43.06
2019-03-19T19:53:09.310Z,43.16
2019-03-19T19:55:36.692Z,43.37
2019-03-19T19:58:04.116Z,43.23
2019-03-19T20:00:31.840Z,43.09
2019-03-19T20:02:59.427Z,43.17
2019-03-19T20:05:26.859Z,43.37
2019-03-19T20:07:54.372Z,42.99
2019-03-19T20:10:23.282Z,42.75
2019-03-19T20:12:50.785Z,42.75
2019-03-19T20:15:18.198Z,42.76
2019-03-19T20:17:45.609Z,42.85
2019-03-19T20:20:13.696Z,43.03
2019-03-19T20:22:41.314Z,43.21
2019-03-19T20:25:08.880Z,43.35
2019-03-19T20:27:36.649Z,43.46
2019-03-19T20:30:04.857Z,43.51
2019-03-19T20:32:32.306Z,43.74
2019-03-19T20:34:59.759Z,43.75
2019-03-19T20:37:27.192Z,43.75
2019-03-19T20:39:54.610Z,43.47
2019-03-19T20:42:22.039Z,43.48
2019-03-19T20:44:49.453Z,43.42
2019-03-19T20:47:16.867Z,43.34
2019-03-19T20:49:47.826Z,43.41
2019-03-19T20:52:12.420Z,43.47
2019-03-19T20:54:39.901Z,43.58
2019-03-19T20:57:07.337Z,43.52
2019-03-19T20:59:35.508Z,43.60
2019-03-19T21:02:02.929Z,43.70
2019-03-19T21:04:31.707Z,43.89
2019-03-19T21:06:58.038Z,44.06
2019-03-19T21:09:25.459Z,44.32
2019-03-19T21:11:53.408Z,44.44
2019-03-19T21:14:20.540Z,44.62
2019-03-19T21:16:47.975Z,44.84
2019-03-19T21:19:15.799Z,45.08
2019-03-19T21:21:43.204Z,45.38
2019-03-19T21:24:10.671Z,45.72
2019-03-19T21:26:38.084Z,46.19
2019-03-19T21:29:05.624Z,46.36
2019-03-19T21:31:33.040Z,46.05
2019-03-19T21:34:00.537Z,45.66
2019-03-19T21:36:27.945Z,45.47
2019-03-19T21:38:55.386Z,45.38
2019-03-19T21:41:22.807Z,45.73
2019-03-19T21:43:50.202Z,46.07
2019-03-19T21:46:17.762Z,46.26
2019-03-19T21:48:45.193Z,46.48
2019-03-19T21:51:12.671Z,46.31
2019-03-19T21:53:40.212Z,46.02
2019-03-19T21:56:07.623Z,45.81
2019-03-19T21:58:35.638Z,45.63
2019-03-19T22:01:03.170Z,45.52
2019-03-19T22:03:30.588Z,45.85
2019-03-19T22:05:58.211Z,45.96
2019-03-19T22:08:25.611Z,45.73
2019-03-19T22:10:53.193Z,45.75
2019-03-19T22:13:20.600Z,45.72
2019-03-19T22:15:47.999Z,45.77
2019-03-19T22:18:15.419Z,45.80
2019-03-19T22:20:42.995Z,46.05
2019-03-19T22:23:10.445Z,46.25
2019-03-19T22:25:37.848Z,46.55
2019-03-19T22:28:05.333Z,46.77
2019-03-19T22:30:33.628Z,47.00
2019-03-19T22:33:01.390Z,47.46
2019-03-19T22:35:28.786Z,47.65
2019-03-19T22:37:56.197Z,47.85
2019-03-19T22:40:23.662Z,47.70
2019-03-19T22:42:51.195Z,47.70
2019-03-19T22:45:18.635Z,47.89
2019-03-19T22:47:46.238Z,47.75
2019-03-19T22:50:14.533Z,47.41
2019-03-19T22:52:41.936Z,47.21
2019-03-19T22:55:10.254Z,47.38
2019-03-19T22:57:37.833Z,47.66
2019-03-19T23:00:06.797Z,47.68
2019-03-19T23:02:34.206Z,47.79
2019-03-19T23:05:01.615Z,48.11
2019-03-19T23:07:29.162Z,48.25
2019-03-19T23:09:57.850Z,48.29
2019-03-19T23:12:25.311Z,48.17
2019-03-19T23:14:52.774Z,48.40
2019-03-19T23:17:20.170Z,48.51
2019-03-19T23:19:47.670Z,48.87
2019-03-19T23:22:15.341Z,49.16
2019-03-19T23:24:42.726Z,49.07
2019-03-19T23:27:10.285Z,48.93
2019-03-19T23:29:37.725Z,48.95
2019-03-19T23:32:05.156Z,48.99
2019-03-19T23:34:38.547Z,49.27
2019-03-19T23:37:00.126Z,49.46
2019-03-19T23:39:27.548Z,49.46
2019-03-19T23:41:54.961Z,49.40
2019-03-19T23:44:22.393Z,49.28
2019-03-19T23:46:50.740Z,49.30
2019-03-19T23:49:18.240Z,49.23
2019-03-19T23:51:45.645Z,49.00
2019-03-19T23:54:13.075Z,48.84
2019-03-19T23:56:40.572Z,48.84
2019-03-19T23:59:08.142Z,49.09
